EW6799 Badalona ES current weather conditions

sailwx.info

Wind from 179 at 4 knots gusting 6

Air temperature 16.7° C
Dewpoint 11.6° C

Last reported at 2020-Apr-07 16:59 UTC.
Time now 2020-Apr-07 17:39 UTC

Location: N 41°27' E 002°15'.
View on Google Maps.

See reports from other nearby stations

  
Tides and Currents Weather Stations Pressure Air Temp Water Temp Dewpoint Dewpoint Depression Visibility Wind Speed Wind Dir Waves Ship Positions
date/time (UTC)wind fromknots sea level pressurealtimeterstation pressurevisibilityair tempwater tempwave heightnotes
2020-Apr-07 16:59 179 4 gusting 6 16.7
2020-Apr-07 16:49 180 4 gusting 6 16.7
2020-Apr-07 16:44 148 2 gusting 6 16.7
2020-Apr-07 16:34 195 4 gusting 6 16.7
2020-Apr-07 16:19 152 4 gusting 6 16.7
2020-Apr-07 16:09 127 3 gusting 6 16.7
2020-Apr-07 16:04 121 4 gusting 7 16.7
2020-Apr-07 15:44 143 1 gusting 6 16.7
2020-Apr-07 14:54 112 6 gusting 8 17.2
2020-Apr-07 14:49 102 3 gusting 6 17.2
2020-Apr-07 14:39 119 5 gusting 7 16.7
2020-Apr-07 14:34 120 4 gusting 6 17.2
2020-Apr-07 14:29 106 4 gusting 6 17.2
2020-Apr-07 14:24 094 2 gusting 6 16.7
2020-Apr-07 14:19 114 2 gusting 6 17.2
2020-Apr-07 14:09 110 5 gusting 6 16.7
2020-Apr-07 13:59 111 2 gusting 5 16.7
2020-Apr-07 13:54 123 5 gusting 6 16.7
2020-Apr-07 13:34 102 4 gusting 6 16.1
2020-Apr-07 13:24 103 2 gusting 6 16.1
2020-Apr-07 13:19 101 3 gusting 6 16.1
2020-Apr-07 13:14 110 5 gusting 6 16.1
2020-Apr-07 13:09 108 4 gusting 6 16.1
2020-Apr-07 13:04 104 4 gusting 6 16.1
2020-Apr-07 12:59 099 4 gusting 6 16.1
2020-Apr-07 12:49 110 4 gusting 6 16.1
2020-Apr-07 12:44 124 4 gusting 6 16.1
2020-Apr-07 12:39 101 5 gusting 5 15.6
2020-Apr-07 12:34 105 4 gusting 6 15.6
2020-Apr-07 12:29 102 4 gusting 5 15.6
2020-Apr-07 12:24 118 3 gusting 5 15.6
2020-Apr-07 12:09 100 4 gusting 6 15.6
2020-Apr-07 12:04 086 3 gusting 6 15.6
2020-Apr-07 11:59 102 4 gusting 5 15.6
2020-Apr-07 11:39 109 4 gusting 6 15.6
2020-Apr-07 11:34 086 3 gusting 6 15.6
2020-Apr-07 11:24 108 4 gusting 6 15.6
2020-Apr-07 11:19 109 5 gusting 6 15.6
2020-Apr-07 11:14 074 3 gusting 6 16.1
2020-Apr-07 11:09 101 5 gusting 8 16.1
2020-Apr-07 11:04 102 4 gusting 7 16.1
2020-Apr-07 10:59 072 2 gusting 5 15.6
2020-Apr-07 10:44 104 2 gusting 6 15.6
2020-Apr-07 10:34 108 5 gusting 8 15.6
2020-Apr-07 10:24 094 4 gusting 6 15.6
2020-Apr-07 10:19 063 5 gusting 6 15.6
2020-Apr-07 10:14 055 4 gusting 6 15.0
2020-Apr-07 10:09 060 3 gusting 6 15.0
2020-Apr-07 09:59 061 4 gusting 6 15.0
2020-Apr-07 09:49 056 4 gusting 6 15.0
2020-Apr-07 09:44 060 4 gusting 5 15.0
2020-Apr-07 09:34 075 4 gusting 6 15.0
2020-Apr-07 09:29 074 2 gusting 6 15.0
2020-Apr-07 09:14 081 3 gusting 6 14.4
2020-Apr-07 09:09 064 5 gusting 6 14.4
2020-Apr-07 08:54 076 2 gusting 4 14.4
2020-Apr-07 08:49 074 3 gusting 5 14.4
2020-Apr-07 08:44 068 3 gusting 5 14.4
2020-Apr-07 08:34 096 2 gusting 6 15.0
2020-Apr-07 08:29 065 5 gusting 6 15.0
2020-Apr-07 08:19 058 4 gusting 5 15.0
2020-Apr-07 08:09 090 1 gusting 2 15.0
2020-Apr-07 07:59 307 15.6
2020-Apr-07 07:54 283 15.6
2020-Apr-07 07:49 283 15.6
2020-Apr-07 07:34 291 14.4
2020-Apr-07 07:19 278 0 gusting 2 14.4
2020-Apr-07 06:59 276 1 gusting 2 13.9
2020-Apr-07 06:29 320 13.3
2020-Apr-07 06:09 313 0 gusting 1 13.3
2020-Apr-07 06:04 300 0 gusting 1 13.3
2020-Apr-07 05:59 285 0 gusting 2 13.3
2020-Apr-07 05:54 300 0 gusting 2 13.3
2020-Apr-07 05:44 287 1 gusting 2 13.3
2020-Apr-07 05:34 282 0 gusting 1 13.3
2020-Apr-07 05:29 293 0 gusting 2 13.3
2020-Apr-07 05:24 296 1 gusting 2 13.3
2020-Apr-07 05:14 317 0 gusting 2 12.8
2020-Apr-07 05:09 308 0 gusting 2 12.8
2020-Apr-07 05:04 302 0 gusting 2 12.8
2020-Apr-07 04:54 298 0 gusting 2 12.8
2020-Apr-07 04:49 290 0 gusting 1 12.8
2020-Apr-07 04:44 278 0 gusting 1 12.8
2020-Apr-07 04:39 278 0 gusting 1 12.8
2020-Apr-07 04:34 278 12.8
2020-Apr-07 04:24 309 0 gusting 2 12.8
2020-Apr-07 04:19 302 0 gusting 2 12.8
2020-Apr-07 04:04 330 13.3
2020-Apr-07 03:59 307 0 gusting 1 13.3
2020-Apr-07 03:54 278 0 gusting 2 13.3
2020-Apr-07 03:49 289 0 gusting 2 13.3
2020-Apr-07 03:44 275 0 gusting 2 13.3
2020-Apr-07 03:34 269 13.3
2020-Apr-07 03:29 272 1 gusting 2 13.3
2020-Apr-07 03:14 281 1 gusting 2 13.3
2020-Apr-07 03:04 282 0 gusting 2 13.3
2020-Apr-07 02:54 296 0 gusting 2 13.3
2020-Apr-07 02:49 293 0 gusting 2 13.9
2020-Apr-07 02:39 272 0 gusting 2 13.9
2020-Apr-07 02:34 305 0 gusting 2 13.9
2020-Apr-07 02:19 288 0 gusting 2 13.9
2020-Apr-07 02:14 307 0 gusting 2 13.9
2020-Apr-07 02:09 316 1 gusting 2 13.9
2020-Apr-07 01:54 294 0 gusting 2 13.9
2020-Apr-07 01:49 318 1 gusting 2 13.9
2020-Apr-07 01:44 312 1 gusting 2 13.9
2020-Apr-07 01:39 311 1 gusting 2 13.9
2020-Apr-07 01:34 311 2 gusting 2 13.9
2020-Apr-07 01:29 318 2 gusting 2 13.9
2020-Apr-07 01:24 313 2 gusting 4 13.9
2020-Apr-07 01:14 304 2 gusting 4 13.9
2020-Apr-07 00:54 288 1 gusting 2 13.9
2020-Apr-07 00:44 286 13.9
2020-Apr-07 00:34 274 13.9
2020-Apr-07 00:29 311 13.9
2020-Apr-07 00:14 292 13.9
2020-Apr-06 23:59 286 0 gusting 1 13.9
2020-Apr-06 23:49 303 0 gusting 1 13.9
2020-Apr-06 23:39 268 13.9
2020-Apr-06 23:14 276 0 gusting 2 13.3
2020-Apr-06 22:39 319 13.9
2020-Apr-06 22:29 321 13.9
2020-Apr-06 22:19 344 13.9
2020-Apr-06 22:14 335 13.9
2020-Apr-06 21:59 221 13.9
2020-Apr-06 21:54 221 14.4
2020-Apr-06 21:44 221 14.4
2020-Apr-06 21:24 314 14.4
2020-Apr-06 21:19 314 14.4
2020-Apr-06 21:14 314 14.4
2020-Apr-06 21:09 314 14.4
2020-Apr-06 20:49 318 14.4
2020-Apr-06 20:44 318 14.4
2020-Apr-06 20:34 318 15.0
2020-Apr-06 20:29 318 15.0
2020-Apr-06 20:24 318 15.0
2020-Apr-06 20:19 318 15.0
2020-Apr-06 20:04 240 15.0
2020-Apr-06 19:59 242 0 gusting 2 15.0
2020-Apr-06 19:49 194 0 gusting 1 15.0
2020-Apr-06 19:39 187 0 gusting 2 15.0
2020-Apr-06 19:24 149 15.6
2020-Apr-06 19:19 159 0 gusting 2 15.6
2020-Apr-06 19:14 149 0 gusting 4 15.6
2020-Apr-06 18:44 166 1 gusting 4 15.0
2020-Apr-06 18:39 147 1 gusting 4 15.0
2020-Apr-06 18:34 132 1 gusting 2 15.0
2020-Apr-06 18:29 144 1 gusting 4 15.0
2020-Apr-06 18:19 168 2 gusting 4 15.0
2020-Apr-06 18:14 126 1 gusting 4 15.0
2020-Apr-06 17:54 146 3 gusting 5 15.6
2020-Apr-06 17:44 142 1 gusting 5 15.6
2020-Apr-06 17:34 153 2 gusting 6 15.6
2020-Apr-06 17:29 162 1 gusting 6 16.1
2020-Apr-06 17:24 131 1 gusting 4 16.1
2020-Apr-06 17:14 149 2 gusting 6 15.6
2020-Apr-06 17:09 141 2 gusting 6 15.6
2020-Apr-06 16:54 148 4 gusting 6 16.1
2020-Apr-06 16:34 136 2 gusting 6 16.1
2020-Apr-06 16:24 115 5 gusting 6 16.1
2020-Apr-06 16:19 113 4 gusting 6 16.1
2020-Apr-06 15:59 106 5 gusting 6 16.1
2020-Apr-06 15:44 094 3 gusting 6 16.1
2020-Apr-06 15:39 105 5 gusting 6 16.1
2020-Apr-06 15:24 112 5 gusting 6 16.1
2020-Apr-06 15:14 102 5 gusting 7 16.1
2020-Apr-06 15:09 107 4 gusting 6 16.1
2020-Apr-06 15:04 096 4 gusting 7 16.1
2020-Apr-06 14:59 108 5 gusting 8 16.1
2020-Apr-06 14:44 109 5 gusting 6 16.1
2020-Apr-06 14:39 094 4 gusting 7 16.1
2020-Apr-06 14:29 079 4 gusting 7 16.1
2020-Apr-06 14:14 108 4 gusting 7 16.1
2020-Apr-06 14:09 085 4 gusting 7 16.1
2020-Apr-06 14:04 103 5 gusting 6 16.1
2020-Apr-06 13:59 097 4 gusting 8 16.1
2020-Apr-06 13:54 105 5 gusting 7 16.1
2020-Apr-06 13:29 110 6 gusting 8 15.6
2020-Apr-06 13:24 114 5 gusting 7 15.6
2020-Apr-06 12:54 100 5 gusting 7 15.6
2020-Apr-06 12:49 095 5 gusting 7 15.6
2020-Apr-06 12:44 105 5 gusting 7 15.6
2020-Apr-06 12:39 105 5 gusting 7 16.1
2020-Apr-06 12:29 109 4 gusting 6 15.6
2020-Apr-06 12:24 106 5 gusting 6 15.6
2020-Apr-06 12:14 113 5 gusting 6 15.6
2020-Apr-06 12:09 112 4 gusting 6 15.6
2020-Apr-06 11:59 112 5 gusting 6 15.6
2020-Apr-06 11:54 108 4 gusting 6 15.6
2020-Apr-06 11:49 102 5 gusting 6 15.6
2020-Apr-06 11:34 126 4 gusting 6 15.6
2020-Apr-06 11:29 113 5 gusting 6 15.6
2020-Apr-06 11:24 107 5 gusting 7 15.0
2020-Apr-06 11:09 113 4 gusting 6 15.0
2020-Apr-06 11:04 111 4 gusting 6 15.0
2020-Apr-06 10:54 098 4 gusting 5 15.0
2020-Apr-06 10:49 103 4 gusting 6 15.6
2020-Apr-06 10:39 113 3 gusting 6 15.6
2020-Apr-06 10:34 069 4 gusting 6 15.0
2020-Apr-06 10:29 101 4 gusting 6 15.0
2020-Apr-06 10:24 064 2 gusting 6 15.0
2020-Apr-06 10:14 078 3 gusting 6 15.0
2020-Apr-06 10:09 097 3 gusting 6 15.0
2020-Apr-06 09:59 118 3 gusting 5 15.0
2020-Apr-06 09:54 119 4 gusting 5 15.0
2020-Apr-06 09:49 103 1 gusting 2 15.0
2020-Apr-06 09:44 110 1 gusting 4 15.0
2020-Apr-06 09:39 105 2 gusting 4 14.4
2020-Apr-06 09:29 122 2 gusting 5 14.4
2020-Apr-06 09:24 106 2 gusting 5 15.0
2020-Apr-06 09:19 103 2 gusting 4 15.0
2020-Apr-06 09:14 095 1 gusting 5 15.0
2020-Apr-06 09:09 090 2 gusting 2 15.0
2020-Apr-06 09:04 111 2 gusting 4 14.4
2020-Apr-06 08:59 115 4 gusting 5 14.4
2020-Apr-06 08:54 105 4 gusting 5 15.0
2020-Apr-06 08:44 100 2 gusting 4 15.6
2020-Apr-06 08:39 161 0 gusting 1 16.1
2020-Apr-06 08:34 195 16.1
2020-Apr-06 08:29 155 16.1
2020-Apr-06 08:19 005 0 gusting 2 16.1
2020-Apr-06 08:14 357 15.6
2020-Apr-06 08:09 324 15.0
2020-Apr-06 07:49 248 15.0
2020-Apr-06 07:39 240 14.4
2020-Apr-06 07:34 240 13.9
2020-Apr-06 07:29 251 13.9
2020-Apr-06 07:24 248 13.9
2020-Apr-06 07:14 279 13.3
2020-Apr-06 06:59 279 12.2
2020-Apr-06 06:34 284 1 gusting 2 11.7
2020-Apr-06 06:24 273 11.7
2020-Apr-06 06:19 259 11.7
2020-Apr-06 06:14 264 11.7
2020-Apr-06 06:09 269 11.7
2020-Apr-06 05:39 305 11.1
2020-Apr-06 05:34 319 11.1
2020-Apr-06 05:29 319 11.1
2020-Apr-06 05:24 305 11.1
2020-Apr-06 05:19 304 0 gusting 2 11.1
2020-Apr-06 05:04 301 0 gusting 2 10.6
2020-Apr-06 04:59 308 1 gusting 4 10.6
2020-Apr-06 04:49 312 2 gusting 4 11.1
2020-Apr-06 04:44 314 2 gusting 5 11.1
2020-Apr-06 04:34 311 0 gusting 2 11.1
2020-Apr-06 04:29 279 1 gusting 2 11.1
2020-Apr-06 04:24 286 1 gusting 2 11.1
2020-Apr-06 04:19 281 1 gusting 2 11.1
2020-Apr-06 04:14 281 0 gusting 2 11.1
2020-Apr-06 04:09 282 1 gusting 2 11.1
2020-Apr-06 04:04 278 1 gusting 1 11.1
2020-Apr-06 03:59 288 11.1
2020-Apr-06 03:54 288 0 gusting 0 11.1
2020-Apr-06 03:44 290 11.1
2020-Apr-06 03:34 289 0 gusting 1 11.1
2020-Apr-06 03:24 292 11.1
2020-Apr-06 03:19 284 1 gusting 2 11.1
2020-Apr-06 03:14 239 11.1
2020-Apr-06 02:59 284 11.1
2020-Apr-06 02:54 278 11.1
2020-Apr-06 02:44 279 10.6
2020-Apr-06 02:34 246 10.6
2020-Apr-06 02:29 248 10.6
2020-Apr-06 02:24 248 10.6
2020-Apr-06 02:19 248 11.1
2020-Apr-06 02:09 277 11.1
2020-Apr-06 01:54 288 11.1
2020-Apr-06 01:49 288 11.1
2020-Apr-06 01:34 279 11.1
2020-Apr-06 01:24 239 0 gusting 2 11.1
2020-Apr-06 01:19 286 11.1
2020-Apr-06 01:09 291 0 gusting 2 11.1
2020-Apr-06 00:59 279 1 gusting 2 11.7
2020-Apr-06 00:54 305 0 gusting 2 11.7
2020-Apr-06 00:49 282 0 gusting 1 11.7
2020-Apr-06 00:24 316 0 gusting 2 11.7
2020-Apr-06 00:19 283 11.7
2020-Apr-06 00:04 252 11.7
2020-Apr-05 23:59 281 0 gusting 1 12.2
2020-Apr-05 23:44 288 12.2
2020-Apr-05 23:39 288 12.2
2020-Apr-05 23:29 303 12.2
2020-Apr-05 23:19 316 12.2
2020-Apr-05 23:04 291 12.2
2020-Apr-05 22:39 303 12.2
2020-Apr-05 22:24 303 12.2
2020-Apr-05 22:09 342 12.2
2020-Apr-05 21:59 342 12.2
2020-Apr-05 21:39 345 12.8
2020-Apr-05 21:19 024 12.8
2020-Apr-05 21:14 024 13.3
2020-Apr-05 20:54 024 13.3
2020-Apr-05 20:44 024 13.3
2020-Apr-05 20:39 024 13.3
2020-Apr-05 20:34 024 13.3
2020-Apr-05 20:24 024 13.3
2020-Apr-05 20:19 024 13.9
2020-Apr-05 20:14 346 13.9
2020-Apr-05 20:09 252 13.9
2020-Apr-05 19:54 122 14.4
2020-Apr-05 19:44 162 14.4
2020-Apr-05 19:24 155 1 gusting 2 14.4
2020-Apr-05 19:19 150 1 gusting 2 14.4
2020-Apr-05 19:14 151 1 gusting 4 14.4
2020-Apr-05 19:04 152 1 gusting 4 14.4
2020-Apr-05 18:54 153 2 gusting 4 14.4
2020-Apr-05 18:49 146 1 gusting 4 14.4
2020-Apr-05 18:44 149 2 gusting 5 14.4
2020-Apr-05 18:39 156 4 gusting 6 14.4
2020-Apr-05 18:24 153 4 gusting 6 15.0
2020-Apr-05 18:19 160 4 gusting 6 15.0
2020-Apr-05 18:09 144 4 gusting 6 15.0
2020-Apr-05 18:04 153 4 gusting 6 15.0
2020-Apr-05 17:39 149 5 gusting 7 15.6
2020-Apr-05 17:14 144 5 gusting 7 16.1
2020-Apr-05 17:09 146 5 gusting 8 16.1
2020-Apr-05 17:04 138 6 gusting 10 16.1